createdAt,value
2024-01-28T00:06:17.364Z,8.40
2024-01-28T00:16:23.813Z,9.60
2024-01-28T00:36:34.771Z,8.00
2024-01-28T00:56:45.159Z,7.10
2024-01-28T01:16:56.735Z,5.90
2024-01-28T01:27:02.869Z,3.80
2024-01-28T01:37:09.017Z,5.00
2024-01-28T01:47:15.042Z,5.90
2024-01-28T01:57:22.396Z,6.90
2024-01-28T02:07:28.517Z,4.90
2024-01-28T02:17:35.264Z,3.90
2024-01-28T02:37:47.589Z,4.40
2024-01-28T02:47:53.500Z,4.30
2024-01-28T02:57:59.616Z,3.50
2024-01-28T03:08:05.890Z,6.20
2024-01-28T03:18:13.495Z,5.10
2024-01-28T03:28:19.400Z,6.30
2024-01-28T03:38:25.376Z,7.30
2024-01-28T03:48:31.599Z,4.60
2024-01-28T03:58:37.700Z,3.50
2024-01-28T04:08:43.602Z,4.30
2024-01-28T04:18:49.640Z,5.20
2024-01-28T04:28:56.369Z,3.40
2024-01-28T04:49:07.032Z,5.80
2024-01-28T04:59:12.900Z,6.90
2024-01-28T05:09:18.973Z,4.30
2024-01-28T05:19:25.237Z,3.40
2024-01-28T05:29:31.249Z,4.70
2024-01-28T05:39:38.041Z,5.00
2024-01-28T05:59:50.813Z,4.40
2024-01-28T06:09:58.090Z,9.00
2024-01-28T06:20:05.289Z,6.40
2024-01-28T06:30:13.849Z,8.20
2024-01-28T06:40:19.710Z,9.70
2024-01-28T06:50:25.642Z,9.60
2024-01-28T07:00:31.797Z,12.40
2024-01-28T07:10:37.762Z,18.60
2024-01-28T07:20:43.608Z,17.20
2024-01-28T07:30:49.476Z,16.70
2024-01-28T07:40:55.378Z,13.70
2024-01-28T07:51:01.449Z,9.70
2024-01-28T08:01:08.242Z,10.80
2024-01-28T08:11:14.016Z,11.60
2024-01-28T08:21:19.913Z,11.70
2024-01-28T08:31:25.877Z,18.60
2024-01-28T08:41:35.184Z,13.60
2024-01-28T08:51:42.222Z,9.30
2024-01-28T09:01:49.097Z,7.90
2024-01-28T09:11:56.650Z,5.50
2024-01-28T09:22:06.663Z,6.40
2024-01-28T09:32:12.593Z,6.50
2024-01-28T09:42:25.364Z,5.10
2024-01-28T09:52:32.487Z,3.50
2024-01-28T10:02:43.640Z,3.00
2024-01-28T10:12:51.406Z,4.30
2024-01-28T10:22:57.514Z,7.10
2024-01-28T10:33:03.688Z,9.50
2024-01-28T10:43:17.929Z,14.10
2024-01-28T10:53:26.250Z,18.30
2024-01-28T11:03:32.852Z,15.20
2024-01-28T11:13:39.276Z,15.60
2024-01-28T11:23:49.751Z,13.50
2024-01-28T11:33:55.562Z,15.70
2024-01-28T11:44:02.922Z,15.20
2024-01-28T11:54:08.748Z,16.20
2024-01-28T12:04:15.534Z,16.70
2024-01-28T12:14:21.573Z,16.20
2024-01-28T12:24:28.024Z,16.70
2024-01-28T12:34:34.090Z,16.30
2024-01-28T12:44:40.024Z,18.80
2024-01-28T12:54:46.120Z,20.80
2024-01-28T13:04:52.930Z,23.70
2024-01-28T13:14:58.865Z,18.70
2024-01-28T13:25:04.927Z,18.30
2024-01-28T13:35:11.938Z,16.10
2024-01-28T13:45:18.056Z,22.70
2024-01-28T13:55:24.196Z,21.60
2024-01-28T14:05:30.029Z,23.50
2024-01-28T14:15:39.397Z,29.40
2024-01-28T14:25:45.501Z,28.90
2024-01-28T14:35:52.763Z,37.40
2024-01-28T14:46:00.386Z,32.60
2024-01-28T14:56:07.825Z,37.30
2024-01-28T15:06:13.674Z,35.10
2024-01-28T15:16:19.696Z,26.40
2024-01-28T15:26:25.843Z,30.50
2024-01-28T15:36:31.767Z,33.60
2024-01-28T15:46:40.812Z,36.10
2024-01-28T15:56:46.671Z,51.40
2024-01-28T16:06:52.770Z,16.20
2024-01-28T16:16:58.694Z,14.40
2024-01-28T16:27:04.908Z,20.90
2024-01-28T16:37:10.816Z,31.70
2024-01-28T16:47:16.826Z,25.70
2024-01-28T16:57:24.480Z,36.60
2024-01-28T17:07:31.368Z,25.00
2024-01-28T17:17:38.470Z,23.50
2024-01-28T17:27:45.581Z,25.30
2024-01-28T17:37:51.572Z,36.70
2024-01-28T17:47:57.521Z,41.70
2024-01-28T17:58:03.662Z,59.50
2024-01-28T18:08:10.190Z,52.30
2024-01-28T18:18:16.824Z,38.10
2024-01-28T18:28:22.801Z,46.60
2024-01-28T18:38:28.653Z,50.90
2024-01-28T18:48:34.748Z,72.20
2024-01-28T18:58:40.684Z,65.90
2024-01-28T19:08:46.541Z,57.80
2024-01-28T19:18:52.554Z,62.50
2024-01-28T19:28:59.110Z,49.90
2024-01-28T19:39:06.400Z,43.80
2024-01-28T19:49:12.294Z,45.00
2024-01-28T19:59:18.446Z,35.70
2024-01-28T20:09:24.755Z,90.80
2024-01-28T20:19:30.898Z,58.50
2024-01-28T20:29:36.887Z,59.90
2024-01-28T20:39:42.829Z,51.10
2024-01-28T20:49:50.606Z,50.90
2024-01-28T20:59:56.745Z,56.50
2024-01-28T21:10:02.816Z,52.10
2024-01-28T21:20:10.483Z,55.00
2024-01-28T21:30:17.023Z,48.70
2024-01-28T21:40:23.411Z,43.60
2024-01-28T21:50:29.482Z,40.10
2024-01-28T22:00:35.523Z,43.20
2024-01-28T22:10:41.914Z,43.70
2024-01-28T22:20:47.978Z,36.40
2024-01-28T22:30:53.851Z,44.40
2024-01-28T22:41:00.089Z,46.70
2024-01-28T22:51:06.503Z,40.70
2024-01-28T23:11:18.716Z,41.90
2024-01-28T23:21:24.864Z,42.90
2024-01-28T23:31:30.774Z,36.10
2024-01-28T23:51:41.399Z,41.10
